Toamasina, Toamasina Airport (FMMT)

NameToamasina Airport
CityToamasina
CountryMadagascar
ICAOFMMT
IATATMM
Altitude7 m
CoordinatesGoogle Map
Live Air TrafficLiveATC.net
METARFMMT 241800Z 26004KT 9999 SCT017 20/19 Q1016 NOSIG
2019-06-24 18:00:00 Wind: West-Southwest (260°) 2.06 m/s - Visibility: > 10000 m - Temperature: 20 °C - Dew point: 19 °C - Humidity: 94% - Pressure: 1016 hPa

Sorry, no flights used the airport in this database.